Time;durP1;ratioP1;P1;durP2;ratioP2;P2;SDS_P1;SDS_P2;PMS_P1;PMS_P2;Temp;Humidity;BMP_temperature;BMP_pressure;BME280_temperature;BME280_humidity;BME280_pressure;Samples;Min_cycle;Max_cycle;Signal;HPM_P1;HPM_P2
2021/12/01 00:02:12;;;;;;;5.32;1.58;;;6.10;99.90;;;;;;5054363;28;20041;-79
2021/12/01 00:04:41;;;;;;;2.10;1.02;;;6.10;99.90;;;;;;5036571;28;20025;-79
2021/12/01 00:07:08;;;;;;;11.88;2.13;;;6.00;99.90;;;;;;5036472;28;20090;-79
2021/12/01 00:09:35;;;;;;;3.90;1.42;;;6.00;99.90;;;;;;5073388;28;20020;-79
2021/12/01 00:12:01;;;;;;;5.25;1.40;;;6.00;99.90;;;;;;5074212;28;20041;-79
2021/12/01 00:14:27;;;;;;;6.88;1.70;;;6.00;99.90;;;;;;5074291;28;20016;-79
2021/12/01 00:16:53;;;;;;;4.00;1.67;;;6.00;99.90;;;;;;5066910;28;20017;-79
2021/12/01 00:19:19;;;;;;;4.60;1.65;;;6.00;99.90;;;;;;5070229;28;20620;-79
2021/12/01 00:21:44;;;;;;;2.78;1.20;;;6.00;99.90;;;;;;5053083;28;20025;-79
2021/12/01 00:24:10;;;;;;;2.75;1.00;;;6.00;99.90;;;;;;5060353;28;20025;-79
2021/12/01 00:26:43;;;;;;;6.68;1.60;;;5.90;99.90;;;;;;5073121;28;20044;-79
2021/12/01 00:29:08;;;;;;;4.90;1.63;;;6.00;99.90;;;;;;5073922;28;20031;-79
2021/12/01 00:31:35;;;;;;;3.03;1.42;;;5.90;99.90;;;;;;5058609;28;20389;-80
2021/12/01 00:34:01;;;;;;;6.90;1.42;;;5.90;99.90;;;;;;5056098;28;20029;-79
2021/12/01 00:36:28;;;;;;;3.78;1.63;;;5.80;99.90;;;;;;5072333;28;20032;-79
2021/12/01 00:38:54;;;;;;;2.88;1.73;;;5.80;99.90;;;;;;5072779;28;20365;-79
2021/12/01 00:41:22;;;;;;;1.83;1.10;;;5.80;99.90;;;;;;5053465;28;20032;-79
2021/12/01 00:43:47;;;;;;;2.10;1.48;;;5.80;99.90;;;;;;5061442;28;20021;-79
2021/12/01 00:46:19;;;;;;;6.78;1.70;;;5.80;99.90;;;;;;5057737;28;20086;-79
2021/12/01 00:48:45;;;;;;;8.02;1.50;;;5.80;99.90;;;;;;5067705;28;20544;-79
2021/12/01 00:51:11;;;;;;;7.78;2.50;;;5.80;99.90;;;;;;5053346;28;20112;-79
2021/12/01 00:53:37;;;;;;;7.20;1.83;;;5.70;99.90;;;;;;5068435;28;20037;-79
2021/12/01 00:56:04;;;;;;;7.25;1.90;;;5.70;99.90;;;;;;5062721;28;20023;-79
2021/12/01 00:58:29;;;;;;;3.15;1.42;;;5.70;99.90;;;;;;5054733;28;20024;-79
2021/12/01 01:00:58;;;;;;;8.18;1.95;;;5.70;99.90;;;;;;5068477;28;20032;-79
2021/12/01 01:03:24;;;;;;;7.18;1.88;;;5.60;99.90;;;;;;5068065;28;20465;-79
2021/12/01 01:05:55;;;;;;;9.15;2.17;;;5.70;99.90;;;;;;5072911;28;20035;-79
2021/12/01 01:08:21;;;;;;;10.68;2.47;;;5.60;99.90;;;;;;5073014;28;20033;-79
2021/12/01 01:16:25;;;;;;;3.83;2.15;;;5.60;99.90;;;;;;5065642;28;20028;-79
2021/12/01 01:18:52;;;;;;;5.47;2.08;;;5.60;99.90;;;;;;5056387;28;20167;-79
2021/12/01 01:21:21;;;;;;;8.45;2.30;;;5.50;99.90;;;;;;5072773;28;20036;-79
2021/12/01 01:23:46;;;;;;;4.28;2.10;;;5.50;99.90;;;;;;5062519;28;20032;-79
2021/12/01 01:26:23;;;;;;;2.42;1.42;;;5.50;99.90;;;;;;5071449;28;20047;-79
2021/12/01 01:28:49;;;;;;;4.25;1.98;;;5.50;99.90;;;;;;5066529;28;20111;-79
2021/12/01 01:31:15;;;;;;;6.90;1.38;;;5.60;99.90;;;;;;5072365;28;20112;-79
2021/12/01 01:33:41;;;;;;;2.92;1.20;;;5.60;99.90;;;;;;5058189;28;20065;-79
2021/12/01 01:36:07;;;;;;;4.00;1.75;;;5.60;99.90;;;;;;5058752;28;20064;-79
2021/12/01 01:38:35;;;;;;;1.75;0.90;;;5.60;99.90;;;;;;5057696;28;20426;-79
2021/12/01 01:41:03;;;;;;;1.25;0.90;;;5.70;99.90;;;;;;5054358;28;20439;-79
2021/12/01 01:43:29;;;;;;;3.00;1.13;;;5.70;99.90;;;;;;5054844;28;20021;-79
2021/12/01 01:45:56;;;;;;;0.70;0.70;;;5.80;99.90;;;;;;5052677;28;20056;-79
2021/12/01 01:48:35;;;;;;;0.93;0.75;;;5.80;99.90;;;;;;5052595;28;20032;-79
2021/12/01 01:51:04;;;;;;;0.70;0.70;;;5.80;99.90;;;;;;5058011;28;20024;-79
2021/12/01 01:53:30;;;;;;;0.80;0.80;;;5.90;99.90;;;;;;5065934;28;20489;-79
2021/12/01 01:56:02;;;;;;;0.90;0.90;;;5.90;99.90;;;;;;5062666;28;20038;-79
2021/12/01 01:58:29;;;;;;;1.17;1.02;;;5.80;99.90;;;;;;5040078;28;20112;-79
2021/12/01 02:01:06;;;;;;;0.60;0.60;;;5.90;99.90;;;;;;5052301;28;20159;-79
2021/12/01 02:03:57;;;;;;;0.50;0.50;;;5.90;99.90;;;;;;5052405;28;20021;-79
2021/12/01 02:06:25;;;;;;;0.52;0.52;;;5.90;99.90;;;;;;5069794;28;20025;-79
2021/12/01 02:08:53;;;;;;;0.57;0.57;;;5.90;99.90;;;;;;5071649;28;20081;-79
2021/12/01 02:11:29;;;;;;;1.00;0.60;;;5.90;99.90;;;;;;5058735;28;20029;-79
2021/12/01 02:13:55;;;;;;;;;;;6.00;99.90;;;;;;5072391;28;20059;-79
2021/12/01 02:16:31;;;;;;;0.85;0.65;;;6.10;99.90;;;;;;5072142;28;20272;-79
2021/12/01 02:18:56;;;;;;;0.75;0.75;;;6.10;99.90;;;;;;5072175;28;20519;-79
2021/12/01 02:21:27;;;;;;;0.60;0.60;;;6.10;99.90;;;;;;5072409;28;20059;-79
2021/12/01 02:23:59;;;;;;;0.77;0.70;;;6.00;99.90;;;;;;5064500;28;20040;-79
2021/12/01 02:26:26;;;;;;;0.90;0.90;;;6.10;99.90;;;;;;5059435;28;20154;-79
2021/12/01 02:28:56;;;;;;;0.60;0.60;;;6.10;99.90;;;;;;5072294;28;20040;-79
2021/12/01 02:31:25;;;;;;;0.57;0.57;;;6.10;99.90;;;;;;5072138;28;20041;-79
2021/12/01 02:33:53;;;;;;;2.47;0.60;;;6.10;99.90;;;;;;5067095;28;20028;-79
2021/12/01 02:36:19;;;;;;;0.75;0.75;;;6.10;99.90;;;;;;5052282;28;20021;-79
2021/12/01 02:38:47;;;;;;;0.75;0.75;;;6.10;99.90;;;;;;5052030;28;20079;-79
2021/12/01 02:41:14;;;;;;;0.50;0.50;;;6.10;99.90;;;;;;5040196;28;20033;-79
2021/12/01 02:43:44;;;;;;;0.70;0.70;;;6.10;99.90;;;;;;5054158;28;20029;-79
2021/12/01 02:46:09;;;;;;;0.80;0.80;;;6.10;99.90;;;;;;5063997;28;20021;-79
2021/12/01 02:48:44;;;;;;;0.68;0.68;;;6.10;99.90;;;;;;5052165;28;20473;-79
2021/12/01 02:51:11;;;;;;;0.70;0.70;;;6.10;99.90;;;;;;5056016;28;20473;-79
2021/12/01 02:53:38;;;;;;;0.60;0.60;;;6.10;99.90;;;;;;5068296;28;20029;-79
2021/12/01 02:56:05;;;;;;;0.63;0.60;;;6.10;99.90;;;;;;5038116;28;20028;-79
2021/12/01 02:58:32;;;;;;;0.73;0.73;;;6.20;99.90;;;;;;5069327;28;20469;-79
2021/12/01 03:01:02;;;;;;;0.70;0.70;;;6.30;99.90;;;;;;5055314;28;20020;-79
2021/12/01 03:03:29;;;;;;;0.70;0.70;;;6.40;99.90;;;;;;5055407;28;20444;-80
2021/12/01 03:05:57;;;;;;;0.60;0.60;;;6.40;99.90;;;;;;5073894;28;20477;-80
2021/12/01 03:08:23;;;;;;;0.55;0.55;;;6.40;99.90;;;;;;5062236;28;20029;-80
2021/12/01 03:10:51;;;;;;;0.60;0.60;;;6.40;99.90;;;;;;5044566;28;20013;-79
2021/12/01 03:13:23;;;;;;;0.70;0.70;;;6.40;99.90;;;;;;5075097;28;20538;-79
2021/12/01 03:15:49;;;;;;;0.50;0.50;;;6.40;99.90;;;;;;5075304;28;20423;-80
2021/12/01 03:18:16;;;;;;;0.88;0.88;;;6.40;99.90;;;;;;5075264;28;20024;-79
2021/12/01 03:20:49;;;;;;;0.85;0.80;;;6.40;99.90;;;;;;5075107;28;20028;-80
2021/12/01 03:23:15;;;;;;;0.60;0.60;;;6.40;99.90;;;;;;5074976;28;20020;-79
2021/12/01 03:25:44;;;;;;;0.73;0.73;;;6.50;99.90;;;;;;5068234;28;20099;-79
2021/12/01 03:28:10;;;;;;;0.88;0.82;;;6.60;99.90;;;;;;5065322;28;20070;-79
2021/12/01 03:30:47;;;;;;;0.70;0.70;;;6.60;99.90;;;;;;5074823;28;20469;-79
2021/12/01 03:33:16;;;;;;;0.70;0.70;;;6.70;99.90;;;;;;5055646;28;20436;-79
2021/12/01 03:35:44;;;;;;;0.57;0.57;;;6.80;99.90;;;;;;5054952;28;20032;-79
2021/12/01 03:38:20;;;;;;;0.70;0.70;;;6.90;99.90;;;;;;5058347;28;20012;-79
2021/12/01 03:40:46;;;;;;;0.50;0.50;;;6.80;99.90;;;;;;5074534;28;20047;-79
2021/12/01 03:43:19;;;;;;;0.60;0.60;;;6.90;99.90;;;;;;5062926;28;20404;-79
2021/12/01 03:45:45;;;;;;;0.60;0.60;;;7.00;99.90;;;;;;5074834;28;20016;-79
2021/12/01 03:48:10;;;;;;;1.08;0.70;;;7.00;99.90;;;;;;5060795;28;20144;-79
2021/12/01 03:50:51;;;;;;;0.82;0.70;;;7.00;99.90;;;;;;5054855;28;20502;-79
2021/12/01 03:53:24;;;;;;;3.50;0.50;;;7.10;99.90;;;;;;5069005;28;20040;-79
2021/12/01 03:55:51;;;;;;;0.68;0.60;;;7.20;99.90;;;;;;5074092;28;20013;-79
2021/12/01 03:58:18;;;;;;;0.75;0.63;;;7.30;99.90;;;;;;5074463;28;20047;-79
2021/12/01 04:00:44;;;;;;;0.50;0.50;;;7.30;99.90;;;;;;5073440;28;20377;-79
2021/12/01 04:03:17;;;;;;;0.70;0.70;;;7.30;99.90;;;;;;5055568;28;20029;-79
2021/12/01 04:05:43;;;;;;;0.70;0.70;;;7.30;99.90;;;;;;5073351;28;20472;-79
2021/12/01 04:08:11;;;;;;;0.70;0.70;;;7.30;99.90;;;;;;5074168;28;20031;-79
2021/12/01 04:10:37;;;;;;;0.52;0.52;;;7.30;99.90;;;;;;5054047;28;20033;-79
2021/12/01 04:13:03;;;;;;;0.60;0.60;;;7.30;99.90;;;;;;5059039;28;20515;-79
2021/12/01 04:15:28;;;;;;;0.60;0.60;;;7.30;99.90;;;;;;5074265;28;20047;-79
2021/12/01 04:17:54;;;;;;;0.60;0.60;;;7.30;99.90;;;;;;5056433;28;20024;-79
2021/12/01 04:20:26;;;;;;;0.75;0.60;;;7.40;99.90;;;;;;5074293;28;20040;-79
2021/12/01 04:22:52;;;;;;;0.50;0.50;;;7.30;99.90;;;;;;5073844;28;20388;-79
2021/12/01 04:25:18;;;;;;;0.40;0.40;;;7.40;99.90;;;;;;5057730;28;20020;-79
2021/12/01 04:27:43;;;;;;;0.52;0.52;;;7.30;99.90;;;;;;5071097;28;20025;-79
2021/12/01 04:30:13;;;;;;;0.50;0.50;;;7.40;99.90;;;;;;5053739;28;20100;-79
2021/12/01 04:32:39;;;;;;;0.77;0.70;;;7.40;99.90;;;;;;5068463;28;20028;-79
2021/12/01 04:35:07;;;;;;;0.60;0.60;;;7.30;99.90;;;;;;5053699;28;22020;-79
2021/12/01 04:37:35;;;;;;;0.60;0.60;;;7.30;99.90;;;;;;5056349;28;20377;-79
2021/12/01 04:40:02;;;;;;;0.60;0.60;;;7.30;99.90;;;;;;5053651;28;20099;-79
2021/12/01 04:42:28;;;;;;;0.60;0.60;;;7.30;99.90;;;;;;5053432;28;20036;-79
2021/12/01 04:44:59;;;;;;;0.52;0.52;;;7.30;99.90;;;;;;5068079;28;20074;-79
2021/12/01 04:47:37;;;;;;;0.60;0.60;;;7.30;99.90;;;;;;5039950;28;20040;-79
2021/12/01 04:50:16;;;;;;;1.48;0.70;;;7.40;99.90;;;;;;5068331;28;20112;-79
2021/12/01 04:52:46;;;;;;;0.65;0.40;;;7.40;99.90;;;;;;5059483;28;20378;-79
2021/12/01 04:55:13;;;;;;;0.68;0.68;;;7.40;99.90;;;;;;5064985;28;20571;-79
2021/12/01 04:57:43;;;;;;;0.50;0.50;;;7.40;99.90;;;;;;5053539;28;20529;-79
2021/12/01 05:00:12;;;;;;;0.75;0.75;;;7.30;99.90;;;;;;5053257;28;20020;-79
2021/12/01 05:02:39;;;;;;;0.50;0.50;;;7.40;99.90;;;;;;5065264;28;20021;-79
2021/12/01 05:05:05;;;;;;;0.55;0.55;;;7.30;99.90;;;;;;5073268;28;20031;-79
2021/12/01 05:07:32;;;;;;;1.02;0.60;;;7.40;99.90;;;;;;5046312;28;20091;-79
2021/12/01 05:09:57;;;;;;;0.70;0.70;;;7.40;99.90;;;;;;5062342;28;20024;-79
2021/12/01 05:12:23;;;;;;;0.88;0.70;;;7.40;99.90;;;;;;5052866;28;20481;-79
2021/12/01 05:14:49;;;;;;;0.65;0.65;;;7.40;99.90;;;;;;5054081;28;20467;-79
2021/12/01 05:17:23;;;;;;;0.80;0.80;;;7.30;99.90;;;;;;5073186;28;20016;-79
2021/12/01 05:19:49;;;;;;;0.90;0.90;;;7.30;99.90;;;;;;5063413;28;20021;-80
2021/12/01 05:22:19;;;;;;;1.98;0.88;;;7.30;99.90;;;;;;5052919;28;20428;-79
2021/12/01 05:24:44;;;;;;;0.65;0.65;;;7.30;99.90;;;;;;5060735;28;20048;-79
2021/12/01 05:27:10;;;;;;;1.95;0.77;;;7.20;99.90;;;;;;5073032;28;20436;-80
2021/12/01 05:29:36;;;;;;;1.20;1.00;;;7.30;99.90;;;;;;5056927;28;20110;-79
2021/12/01 05:32:02;;;;;;;0.75;0.75;;;7.30;99.90;;;;;;5052818;28;20025;-79
2021/12/01 05:34:27;;;;;;;1.00;0.90;;;7.40;99.90;;;;;;5052446;28;20046;-79
2021/12/01 05:37:03;;;;;;;0.80;0.80;;;7.30;99.90;;;;;;5069673;28;20021;-79
2021/12/01 05:39:29;;;;;;;3.60;1.00;;;7.40;99.90;;;;;;5072643;28;20104;-79
2021/12/01 05:42:02;;;;;;;1.65;1.10;;;7.30;99.90;;;;;;5072675;28;20078;-79
2021/12/01 05:44:30;;;;;;;1.88;0.90;;;7.30;99.90;;;;;;5059474;28;20051;-79
2021/12/01 05:47:03;;;;;;;1.00;1.00;;;7.30;99.90;;;;;;5052636;28;20021;-79
2021/12/01 05:49:29;;;;;;;0.80;0.80;;;7.30;99.90;;;;;;5065385;28;20029;-79
2021/12/01 05:51:59;;;;;;;1.17;1.15;;;7.30;99.90;;;;;;5056738;28;20028;-79
2021/12/01 05:54:31;;;;;;;2.60;1.30;;;7.30;99.90;;;;;;5051869;28;20132;-79
2021/12/01 05:56:57;;;;;;;5.15;1.20;;;7.20;99.90;;;;;;5052505;28;20025;-79
2021/12/01 05:59:27;;;;;;;1.20;1.10;;;7.20;99.90;;;;;;5034777;28;20051;-79
2021/12/01 06:01:54;;;;;;;1.15;1.10;;;7.20;99.90;;;;;;5057718;28;20025;-79
2021/12/01 06:04:25;;;;;;;1.25;1.25;;;7.10;99.90;;;;;;5072644;28;20028;-79
2021/12/01 06:06:52;;;;;;;1.02;1.02;;;7.10;99.90;;;;;;5072297;28;20064;-79
2021/12/01 06:09:19;;;;;;;4.85;3.13;;;7.10;99.90;;;;;;5054268;28;20031;-79
2021/12/01 06:11:46;;;;;;;1.65;1.55;;;7.10;99.90;;;;;;5060332;28;20491;-80
2021/12/01 06:14:14;;;;;;;1.65;1.55;;;7.10;99.90;;;;;;5052422;28;20021;-79
2021/12/01 06:16:39;;;;;;;1.80;1.70;;;7.10;99.90;;;;;;5063522;28;20373;-79
2021/12/01 06:19:05;;;;;;;2.03;1.85;;;7.00;99.90;;;;;;5054383;28;20025;-79
2021/12/01 06:21:31;;;;;;;1.67;1.58;;;7.10;99.90;;;;;;5043845;28;20048;-79
2021/12/01 06:24:03;;;;;;;1.70;1.60;;;7.00;99.90;;;;;;5052957;28;20032;-79
2021/12/01 06:26:28;;;;;;;1.65;1.55;;;7.00;99.90;;;;;;5057791;28;20409;-79
2021/12/01 06:28:54;;;;;;;2.20;2.00;;;7.00;99.90;;;;;;5056125;28;20027;-79
2021/12/01 06:31:19;;;;;;;1.55;1.45;;;7.00;99.90;;;;;;5056041;28;20500;-80
2021/12/01 06:33:45;;;;;;;1.50;1.40;;;7.00;99.90;;;;;;5066057;28;20021;-79
2021/12/01 06:36:13;;;;;;;1.92;1.80;;;6.90;99.90;;;;;;5061135;28;20104;-79
2021/12/01 06:38:41;;;;;;;1.33;1.30;;;6.90;99.90;;;;;;5062333;28;20027;-79
2021/12/01 06:41:08;;;;;;;1.20;1.20;;;6.90;99.90;;;;;;5059937;28;20025;-79
2021/12/01 06:43:34;;;;;;;1.00;1.00;;;6.90;99.90;;;;;;5065227;28;20381;-80
2021/12/01 06:46:00;;;;;;;1.17;1.17;;;6.80;99.90;;;;;;5064041;28;20043;-79
2021/12/01 06:48:26;;;;;;;1.10;1.10;;;6.80;99.90;;;;;;5048135;28;20468;-79
2021/12/01 06:50:51;;;;;;;1.30;1.20;;;6.70;99.90;;;;;;5075386;28;20039;-79
2021/12/01 06:53:17;;;;;;;1.30;1.23;;;6.70;99.90;;;;;;5075062;28;20036;-79
2021/12/01 06:55:43;;;;;;;1.58;1.23;;;6.60;99.90;;;;;;5057741;28;20043;-79
2021/12/01 06:58:08;;;;;;;1.98;1.70;;;6.70;99.90;;;;;;5065825;28;20032;-79
2021/12/01 07:00:36;;;;;;;1.65;1.20;;;6.60;99.90;;;;;;5043608;28;20540;-79
2021/12/01 07:03:10;;;;;;;2.65;1.60;;;6.60;99.90;;;;;;5075406;28;20107;-79
2021/12/01 07:05:36;;;;;;;1.60;1.48;;;6.60;99.90;;;;;;5068557;28;20034;-79
2021/12/01 07:08:04;;;;;;;1.60;1.50;;;6.50;99.90;;;;;;5049613;28;20124;-79
2021/12/01 07:10:30;;;;;;;1.10;1.10;;;6.60;99.90;;;;;;5040415;28;20032;-79
2021/12/01 07:12:57;;;;;;;1.50;1.40;;;6.50;99.90;;;;;;5062936;28;20043;-79
2021/12/01 07:15:23;;;;;;;1.50;1.40;;;6.50;99.90;;;;;;5049277;28;20071;-79
2021/12/01 07:17:49;;;;;;;1.88;1.63;;;6.50;99.90;;;;;;5061331;28;20718;-80
2021/12/01 07:20:15;;;;;;;1.30;1.30;;;6.50;99.90;;;;;;5057169;28;20016;-79
2021/12/01 07:22:43;;;;;;;1.42;1.30;;;6.50;99.90;;;;;;5071639;28;20587;-79
2021/12/01 07:25:09;;;;;;;1.05;1.05;;;6.50;99.90;;;;;;5065759;28;20028;-79
2021/12/01 07:27:35;;;;;;;1.13;1.08;;;6.50;99.90;;;;;;5074229;28;20478;-79
2021/12/01 07:30:01;;;;;;;1.50;1.40;;;6.50;99.90;;;;;;5075011;28;20035;-79
2021/12/01 07:32:27;;;;;;;1.63;1.52;;;6.40;99.90;;;;;;5073276;28;20024;-79
2021/12/01 07:34:53;;;;;;;1.70;1.60;;;6.40;99.90;;;;;;5068417;28;20035;-79
2021/12/01 07:37:20;;;;;;;1.67;1.40;;;6.40;99.90;;;;;;5054750;28;20028;-79
2021/12/01 07:39:46;;;;;;;1.35;1.25;;;6.50;99.90;;;;;;5075636;28;20425;-79
2021/12/01 07:42:15;;;;;;;1.55;1.42;;;6.50;99.90;;;;;;5056301;28;20236;-79
2021/12/01 07:44:41;;;;;;;1.27;1.25;;;6.50;99.90;;;;;;5056341;28;20077;-79
2021/12/01 07:47:16;;;;;;;1.50;1.40;;;6.40;99.90;;;;;;5073809;28;20107;-79
2021/12/01 07:49:42;;;;;;;2.38;1.55;;;6.40;99.90;;;;;;5067027;28;20064;-79
2021/12/01 07:52:09;;;;;;;1.88;1.63;;;6.50;99.90;;;;;;5059765;28;20159;-79
2021/12/01 07:54:37;;;;;;;5.13;1.85;;;6.50;99.90;;;;;;5069633;28;20040;-80
2021/12/01 07:57:03;;;;;;;1.55;1.40;;;6.50;99.90;;;;;;5054516;28;20037;-79
2021/12/01 07:59:30;;;;;;;1.63;1.48;;;6.50;99.90;;;;;;5066228;28;20028;-78
2021/12/01 08:01:55;;;;;;;3.00;1.92;;;6.50;99.90;;;;;;5063616;28;20020;-79
2021/12/01 08:04:22;;;;;;;1.80;1.50;;;6.50;99.90;;;;;;5036756;28;20017;-79
2021/12/01 08:06:47;;;;;;;1.73;1.50;;;6.50;99.90;;;;;;5054591;28;20021;-79
2021/12/01 08:09:14;;;;;;;1.42;1.30;;;6.50;99.90;;;;;;5036156;28;20086;-79
2021/12/01 08:11:40;;;;;;;1.77;1.67;;;6.50;99.90;;;;;;5054132;28;20029;-79
2021/12/01 08:14:08;;;;;;;3.63;1.77;;;6.50;99.90;;;;;;5054310;28;20025;-80
2021/12/01 08:16:35;;;;;;;1.80;1.58;;;6.50;99.90;;;;;;5054148;28;20016;-79
2021/12/01 08:19:02;;;;;;;2.28;1.90;;;6.50;99.90;;;;;;5036399;28;20021;-79
2021/12/01 08:21:28;;;;;;;1.75;1.58;;;6.50;99.90;;;;;;5053971;28;20025;-79
2021/12/01 08:23:54;;;;;;;2.53;1.70;;;6.50;99.90;;;;;;5053855;28;20078;-79
2021/12/01 08:26:21;;;;;;;3.00;1.73;;;6.50;99.90;;;;;;5036019;28;20029;-79
2021/12/01 08:28:49;;;;;;;1.70;1.60;;;6.50;99.90;;;;;;5053911;28;20032;-79
2021/12/01 08:31:17;;;;;;;2.88;1.60;;;6.60;99.90;;;;;;5053817;28;20025;-79
2021/12/01 08:33:46;;;;;;;2.20;1.83;;;6.60;99.90;;;;;;5053830;28;20021;-79
2021/12/01 08:36:13;;;;;;;1.50;1.40;;;6.60;99.90;;;;;;5053814;28;20098;-79
2021/12/01 08:38:40;;;;;;;4.32;1.73;;;6.70;99.90;;;;;;5053463;28;20017;-79
2021/12/01 08:41:07;;;;;;;1.70;1.60;;;6.70;99.90;;;;;;5053736;28;20021;-79
2021/12/01 08:43:34;;;;;;;1.52;1.42;;;6.60;99.90;;;;;;5053807;28;20040;-79
2021/12/01 08:46:05;;;;;;;2.72;1.65;;;6.60;99.90;;;;;;5053605;28;20044;-79
2021/12/01 08:48:35;;;;;;;1.83;1.73;;;6.60;99.90;;;;;;5035384;28;20032;-79
2021/12/01 08:51:02;;;;;;;1.73;1.63;;;6.60;99.90;;;;;;5035543;28;20056;-79
2021/12/01 08:53:30;;;;;;;2.00;1.90;;;6.70;99.90;;;;;;5052814;28;20119;-79
2021/12/01 08:55:57;;;;;;;1.95;1.70;;;6.70;99.90;;;;;;5035640;28;20032;-79
2021/12/01 08:58:23;;;;;;;2.10;1.90;;;6.70;99.90;;;;;;5053474;28;20028;-79
2021/12/01 09:00:49;;;;;;;1.80;1.55;;;6.70;99.90;;;;;;5035657;28;20025;-79
2021/12/01 09:03:17;;;;;;;3.88;1.80;;;6.70;99.90;;;;;;5053243;28;20021;-79
2021/12/01 09:05:46;;;;;;;1.48;1.38;;;6.80;99.90;;;;;;5041747;28;20025;-80
2021/12/01 09:08:13;;;;;;;1.70;1.60;;;6.80;99.90;;;;;;5071282;28;20479;-79
2021/12/01 09:10:41;;;;;;;2.83;1.98;;;6.90;99.90;;;;;;5070138;28;20485;-79
2021/12/01 09:13:07;;;;;;;1.77;1.67;;;6.80;99.90;;;;;;5072447;28;20488;-79
2021/12/01 09:15:38;;;;;;;2.08;1.88;;;6.80;99.90;;;;;;5062509;28;20070;-79
2021/12/01 09:18:04;;;;;;;1.73;1.60;;;6.80;99.90;;;;;;5068849;28;20025;-79
2021/12/01 09:20:29;;;;;;;1.80;1.70;;;6.90;99.90;;;;;;5068241;28;20029;-79
2021/12/01 09:22:55;;;;;;;1.90;1.80;;;6.80;99.90;;;;;;5054657;28;20020;-79
2021/12/01 09:25:21;;;;;;;2.58;2.35;;;6.90;99.90;;;;;;5071850;28;20024;-79
2021/12/01 09:27:48;;;;;;;1.90;1.80;;;6.80;99.90;;;;;;5071032;28;20384;-79
2021/12/01 09:30:16;;;;;;;2.70;1.80;;;6.80;99.90;;;;;;5036107;28;20025;-79
2021/12/01 09:32:42;;;;;;;2.65;2.20;;;6.80;99.90;;;;;;5043666;28;20583;-78
2021/12/01 09:35:10;;;;;;;1.90;1.80;;;6.80;99.90;;;;;;5072927;28;20095;-79
2021/12/01 09:37:36;;;;;;;2.05;1.88;;;6.80;99.90;;;;;;5070156;28;20013;-79
2021/12/01 09:40:13;;;;;;;2.15;1.80;;;6.70;99.90;;;;;;5061088;28;20037;-79
2021/12/01 09:42:42;;;;;;;2.35;1.63;;;6.80;99.90;;;;;;5074627;28;20024;-79
2021/12/01 09:45:09;;;;;;;1.70;1.60;;;6.80;99.90;;;;;;5070986;28;20478;-79
2021/12/01 09:47:35;;;;;;;1.88;1.55;;;6.80;99.90;;;;;;5068352;28;20052;-79
2021/12/01 09:50:00;;;;;;;2.05;1.90;;;6.80;99.90;;;;;;5072575;28;20471;-79
2021/12/01 09:52:26;;;;;;;2.92;1.38;;;6.90;99.90;;;;;;5054127;28;20031;-79
2021/12/01 09:54:51;;;;;;;1.58;1.48;;;6.90;99.90;;;;;;5071670;28;20051;-79
2021/12/01 09:57:17;;;;;;;3.78;1.83;;;6.90;99.90;;;;;;5054642;28;20055;-79
2021/12/01 09:59:44;;;;;;;3.03;2.17;;;6.90;99.90;;;;;;5070356;28;20046;-79
2021/12/01 10:02:13;;;;;;;1.77;1.67;;;6.90;99.90;;;;;;5065571;28;20040;-79
2021/12/01 10:04:39;;;;;;;3.55;2.45;;;6.90;99.90;;;;;;5044503;28;20508;-79
2021/12/01 10:07:20;;;;;;;2.70;2.50;;;7.00;99.90;;;;;;5064612;28;20029;-79
2021/12/01 10:09:50;;;;;;;3.95;2.22;;;7.00;99.90;;;;;;5042149;28;20029;-79
2021/12/01 10:12:16;;;;;;;3.17;2.17;;;7.00;99.90;;;;;;5054008;28;20032;-78
2021/12/01 10:14:48;;;;;;;2.35;2.15;;;7.00;99.90;;;;;;5041328;28;20025;-79
2021/12/01 10:17:17;;;;;;;2.75;2.30;;;7.00;99.90;;;;;;5070324;28;20104;-79
2021/12/01 10:19:43;;;;;;;3.10;2.08;;;7.10;99.90;;;;;;5051516;28;20021;-79
2021/12/01 10:22:10;;;;;;;1.95;1.85;;;7.10;99.90;;;;;;5068426;28;20032;-79
2021/12/01 10:24:39;;;;;;;5.63;2.35;;;7.10;99.90;;;;;;5069186;28;20518;-79
2021/12/01 10:27:13;;;;;;;4.35;2.13;;;7.10;99.90;;;;;;5070833;28;20482;-79
2021/12/01 10:29:48;;;;;;;2.00;1.90;;;7.10;99.90;;;;;;5072272;28;20388;-79
2021/12/01 10:32:18;;;;;;;3.38;2.40;;;7.00;99.90;;;;;;5034897;28;20031;-79
2021/12/01 10:34:47;;;;;;;3.60;2.05;;;7.10;99.90;;;;;;5046772;28;20361;-79
2021/12/01 10:37:31;;;;;;;3.17;2.15;;;7.00;99.90;;;;;;5069345;28;20027;-79
2021/12/01 10:40:25;;;;;;;1.67;1.40;;;7.10;99.90;;;;;;5090632;28;20016;-79
2021/12/01 10:43:00;;;;;;;2.50;1.85;;;7.10;99.90;;;;;;5059299;28;20089;-79
2021/12/01 10:45:29;;;;;;;2.40;1.70;;;7.10;99.90;;;;;;5070860;28;20439;-78
2021/12/01 10:47:55;;;;;;;2.45;1.77;;;7.20;99.90;;;;;;5067136;28;20035;-79
2021/12/01 10:50:26;;;;;;;2.08;1.70;;;7.10;99.90;;;;;;5051747;28;20079;-79
2021/12/01 10:52:54;;;;;;;1.67;1.58;;;7.20;99.90;;;;;;5051199;28;20033;-79
2021/12/01 10:55:22;;;;;;;2.00;1.73;;;7.10;99.90;;;;;;5058041;28;20124;-79
2021/12/01 10:57:54;;;;;;;2.97;1.90;;;7.20;99.90;;;;;;5056933;28;20444;-79
2021/12/01 11:00:26;;;;;;;2.10;1.80;;;7.20;99.90;;;;;;5051860;28;20017;-79
2021/12/01 11:02:53;;;;;;;2.22;1.80;;;7.20;99.90;;;;;;5052189;28;20260;-79
2021/12/01 11:05:47;;;;;;;4.15;2.92;;;7.20;99.90;;;;;;5039450;28;20100;-80
2021/12/01 11:08:18;;;;;;;3.55;2.10;;;7.20;99.90;;;;;;5044080;28;20039;-79
2021/12/01 11:10:55;;;;;;;1.70;1.60;;;7.30;99.90;;;;;;5072490;28;20043;-79
2021/12/01 11:13:23;;;;;;;1.52;1.42;;;7.30;99.90;;;;;;5074861;28;20101;-79
2021/12/01 11:15:57;;;;;;;5.90;2.20;;;7.30;99.90;;;;;;5061015;28;20021;-79
2021/12/01 11:18:28;;;;;;;3.47;2.30;;;7.30;99.90;;;;;;5071169;28;20021;-78
2021/12/01 11:20:59;;;;;;;1.60;1.50;;;7.30;99.90;;;;;;5072950;28;20027;-79
2021/12/01 11:23:30;;;;;;;2.15;1.60;;;7.40;99.90;;;;;;5054562;28;20029;-79
2021/12/01 11:26:10;;;;;;;2.70;1.60;;;7.40;99.90;;;;;;5055184;28;20020;-79
2021/12/01 11:28:48;;;;;;;1.58;1.27;;;7.40;99.90;;;;;;5055281;28;20100;-79
2021/12/01 11:31:18;;;;;;;7.35;1.58;;;7.40;99.90;;;;;;5047467;28;20443;-79
2021/12/01 11:33:55;;;;;;;2.70;1.73;;;7.50;99.90;;;;;;5054790;28;20043;-79
2021/12/01 11:36:28;;;;;;;1.40;1.30;;;7.50;99.90;;;;;;5058014;28;20104;-79
2021/12/01 11:38:58;;;;;;;1.00;1.00;;;7.40;99.90;;;;;;5044055;28;20025;-78
2021/12/01 11:41:24;;;;;;;1.30;1.20;;;7.50;99.90;;;;;;5054885;28;20420;-79
2021/12/01 11:43:54;;;;;;;1.10;1.00;;;7.50;99.90;;;;;;5054814;28;20024;-79
2021/12/01 11:46:19;;;;;;;6.53;1.33;;;7.50;99.90;;;;;;5067692;28;20404;-79
2021/12/01 11:48:54;;;;;;;1.52;1.42;;;7.50;99.90;;;;;;5054478;28;20013;-79
2021/12/01 11:51:24;;;;;;;2.42;1.13;;;7.50;99.90;;;;;;5054479;28;20083;-79
2021/12/01 11:53:56;;;;;;;2.13;1.20;;;7.60;99.90;;;;;;5055049;28;20043;-79
2021/12/01 11:56:29;;;;;;;1.50;1.35;;;7.60;99.90;;;;;;5072200;28;20024;-79
2021/12/01 11:59:03;;;;;;;2.58;1.40;;;7.50;99.90;;;;;;5059074;28;20051;-79
2021/12/01 12:01:35;;;;;;;1.70;1.60;;;7.60;99.90;;;;;;5019962;28;20033;-79
2021/12/01 12:04:06;;;;;;;1.50;1.20;;;7.60;99.90;;;;;;5065141;28;20021;-79
2021/12/01 12:06:34;;;;;;;4.82;1.38;;;7.60;99.90;;;;;;5064358;28;20033;-79
2021/12/01 12:09:11;;;;;;;2.90;2.13;;;7.60;99.90;;;;;;5066348;28;20025;-79
2021/12/01 12:11:46;;;;;;;3.13;1.67;;;7.60;99.90;;;;;;5055701;28;20075;-79
2021/12/01 12:14:31;;;;;;;0.97;0.97;;;7.60;99.90;;;;;;5054628;28;20044;-79
2021/12/01 12:17:14;;;;;;;3.25;1.35;;;7.60;99.90;;;;;;5054079;28;21068;-79
2021/12/01 12:19:43;;;;;;;1.52;1.13;;;7.70;99.90;;;;;;5054538;28;20075;-79
2021/12/01 12:22:10;;;;;;;0.95;0.95;;;7.70;99.90;;;;;;5072101;28;20086;-79
2021/12/01 12:24:44;;;;;;;9.80;4.00;;;7.70;99.90;;;;;;5073903;28;20457;-79
2021/12/01 12:27:49;;;;;;;1.52;1.20;;;7.60;99.90;;;;;;5059294;28;20051;-79
2021/12/01 12:30:37;;;;;;;2.08;1.30;;;7.70;99.90;;;;;;4954426;28;20865;-80
2021/12/01 12:33:26;;;;;;;1.27;1.17;;;7.60;99.90;;;;;;5047039;28;20918;-79
2021/12/01 12:35:54;;;;;;;3.13;1.35;;;7.70;99.90;;;;;;5056093;28;20028;-79
2021/12/01 12:38:23;;;;;;;3.58;1.48;;;7.70;99.90;;;;;;5061444;28;20498;-79
2021/12/01 12:41:11;;;;;;;1.00;1.00;;;7.70;99.90;;;;;;5035866;28;20031;-79
2021/12/01 12:43:39;;;;;;;1.27;0.98;;;7.70;99.90;;;;;;5053800;28;20032;-80
2021/12/01 12:46:12;;;;;;;1.02;1.02;;;7.70;99.90;;;;;;5058960;28;20086;-79
2021/12/01 12:48:43;;;;;;;1.23;1.13;;;7.70;99.90;;;;;;5055389;28;20029;-79
2021/12/01 12:51:38;;;;;;;1.13;1.02;;;7.80;99.90;;;;;;5060680;28;20028;-79
2021/12/01 12:54:06;;;;;;;1.00;1.00;;;7.80;99.90;;;;;;5072624;28;20047;-79
2021/12/01 12:56:37;;;;;;;0.88;0.82;;;7.80;99.90;;;;;;5035961;28;20041;-79
2021/12/01 12:59:32;;;;;;;1.95;1.25;;;7.70;99.90;;;;;;5053268;28;20029;-79
2021/12/01 13:02:09;;;;;;;1.20;1.13;;;7.80;99.90;;;;;;5057805;28;20376;-79
2021/12/01 13:07:41;;;;;;;1.17;1.10;;;7.80;99.90;;;;;;5071433;28;20498;-80
2021/12/01 13:10:27;;;;;;;1.08;1.00;;;7.90;99.90;;;;;;5053242;28;20467;-79
2021/12/01 13:13:05;;;;;;;2.90;1.15;;;7.80;99.90;;;;;;5061703;28;20037;-79
2021/12/01 13:15:43;;;;;;;0.93;0.93;;;7.90;99.90;;;;;;5054162;28;20040;-79
2021/12/01 13:18:18;;;;;;;4.00;1.02;;;7.90;99.90;;;;;;5035615;28;20552;-80